createdAt,value
2018-03-27T00:00:09.182Z,40.79
2018-03-27T00:01:09.103Z,40.72
2018-03-27T00:02:09.210Z,40.58
2018-03-27T00:03:09.109Z,40.78
2018-03-27T00:04:09.128Z,40.63
2018-03-27T00:05:09.172Z,40.56
2018-03-27T00:06:09.127Z,40.79
2018-03-27T00:07:09.205Z,40.68
2018-03-27T00:08:09.145Z,40.58
2018-03-27T00:09:09.112Z,40.74
2018-03-27T00:10:09.097Z,40.7
2018-03-27T00:11:09.192Z,40.58
2018-03-27T00:12:09.140Z,40.78
2018-03-27T00:13:09.116Z,40.66
2018-03-27T00:14:09.145Z,40.64
2018-03-27T00:15:09.086Z,40.74
2018-03-27T00:16:09.110Z,40.68
2018-03-27T00:17:12.797Z,40.58
2018-03-27T00:18:09.286Z,40.83
2018-03-27T00:19:09.209Z,40.77
2018-03-27T00:20:09.209Z,40.64
2018-03-27T00:21:09.206Z,40.79
2018-03-27T00:22:09.211Z,40.68
2018-03-27T00:23:09.218Z,40.61
2018-03-27T00:24:09.206Z,40.82
2018-03-27T00:25:09.193Z,40.72
2018-03-27T00:26:09.186Z,40.56
2018-03-27T00:27:09.197Z,40.8
2018-03-27T00:28:09.201Z,40.7
2018-03-27T00:29:09.191Z,40.63
2018-03-27T00:30:09.181Z,40.82
2018-03-27T00:31:09.197Z,40.66
2018-03-27T00:32:09.251Z,40.6
2018-03-27T00:33:09.187Z,40.8
2018-03-27T00:34:09.194Z,40.64
2018-03-27T00:35:09.173Z,40.63
2018-03-27T00:36:09.161Z,40.86
2018-03-27T00:37:09.210Z,40.72
2018-03-27T00:38:09.194Z,40.65
2018-03-27T00:39:09.169Z,40.77
2018-03-27T00:40:09.175Z,40.66
2018-03-27T00:41:09.671Z,40.63
2018-03-27T00:42:09.181Z,40.85
2018-03-27T00:43:09.156Z,40.66
2018-03-27T00:44:09.179Z,40.58
2018-03-27T00:45:09.241Z,40.76
2018-03-27T00:46:09.177Z,40.63
2018-03-27T00:47:09.184Z,40.61
2018-03-27T00:48:09.250Z,40.81
2018-03-27T00:49:09.178Z,40.72
2018-03-27T00:50:09.175Z,40.63
2018-03-27T00:51:09.194Z,40.82
2018-03-27T00:52:09.174Z,40.73
2018-03-27T00:53:09.169Z,40.66
2018-03-27T00:54:09.182Z,40.84
2018-03-27T00:55:09.172Z,40.72
2018-03-27T00:56:09.182Z,40.63
2018-03-27T00:57:09.154Z,40.83
2018-03-27T00:58:09.190Z,40.68
2018-03-27T00:59:09.148Z,40.66
2018-03-27T01:00:09.194Z,40.81
2018-03-27T01:01:09.163Z,40.63
2018-03-27T01:02:09.191Z,40.62
2018-03-27T01:03:09.214Z,40.77
2018-03-27T01:04:09.160Z,40.7
2018-03-27T01:05:09.180Z,40.66
2018-03-27T01:06:09.136Z,40.75
2018-03-27T01:07:09.168Z,40.66
2018-03-27T01:08:09.228Z,40.59
2018-03-27T01:09:09.196Z,40.81
2018-03-27T01:10:09.183Z,40.66
2018-03-27T01:11:09.180Z,40.57
2018-03-27T01:12:09.160Z,40.72
2018-03-27T01:13:09.176Z,40.63
2018-03-27T01:14:09.176Z,40.64
2018-03-27T01:15:09.196Z,40.77
2018-03-27T01:16:09.146Z,40.7
2018-03-27T01:17:09.278Z,40.6
2018-03-27T01:18:09.284Z,40.78
2018-03-27T01:19:09.158Z,40.7
2018-03-27T01:20:09.161Z,40.58
2018-03-27T01:21:09.196Z,40.75
2018-03-27T01:22:09.162Z,40.63
2018-03-27T01:23:09.161Z,40.57
2018-03-27T01:24:09.199Z,40.76
2018-03-27T01:25:09.179Z,40.62
2018-03-27T01:26:09.204Z,40.52
2018-03-27T01:27:09.235Z,40.69
2018-03-27T01:28:09.180Z,40.62
2018-03-27T01:29:09.191Z,40.56
2018-03-27T01:30:09.158Z,40.71
2018-03-27T01:31:09.160Z,40.63
2018-03-27T01:32:09.172Z,40.53
2018-03-27T01:33:09.150Z,40.73
2018-03-27T01:34:09.167Z,40.58
2018-03-27T01:35:09.165Z,40.5
2018-03-27T01:36:09.151Z,40.69
2018-03-27T01:37:09.157Z,40.64
2018-03-27T01:38:09.161Z,40.57
2018-03-27T01:39:09.282Z,40.74
2018-03-27T01:40:09.164Z,40.61
2018-03-27T01:41:09.155Z,40.54
2018-03-27T01:42:09.169Z,40.68
2018-03-27T01:43:09.168Z,40.65
2018-03-27T01:44:09.162Z,40.55
2018-03-27T01:45:09.165Z,40.73
2018-03-27T01:46:09.145Z,40.61
2018-03-27T01:47:09.167Z,40.59
2018-03-27T01:48:09.194Z,40.73
2018-03-27T01:49:09.167Z,40.59
2018-03-27T01:50:09.175Z,40.51
2018-03-27T01:51:09.148Z,40.72
2018-03-27T01:52:09.159Z,40.63
2018-03-27T01:53:09.153Z,40.47
2018-03-27T01:54:09.165Z,40.72
2018-03-27T01:55:08.976Z,40.59
2018-03-27T01:56:09.166Z,40.47
2018-03-27T01:57:09.145Z,40.65
2018-03-27T01:58:09.151Z,40.55
2018-03-27T01:59:09.181Z,40.44
2018-03-27T02:00:09.194Z,40.69
2018-03-27T02:01:09.165Z,40.56
2018-03-27T02:02:09.172Z,40.41
2018-03-27T02:03:09.160Z,40.67
2018-03-27T02:04:09.229Z,40.52
2018-03-27T02:05:09.534Z,40.43
2018-03-27T02:06:09.150Z,40.68
2018-03-27T02:07:09.149Z,40.58
2018-03-27T02:08:09.194Z,40.46
2018-03-27T02:09:09.234Z,40.64
2018-03-27T02:10:09.150Z,40.54
2018-03-27T02:11:09.156Z,40.52
2018-03-27T02:12:09.171Z,40.64
2018-03-27T02:13:09.226Z,40.55
2018-03-27T02:14:09.150Z,40.52
2018-03-27T02:15:09.139Z,40.64
2018-03-27T02:16:09.147Z,40.54
2018-03-27T02:17:09.157Z,40.49
2018-03-27T02:18:09.157Z,40.67
2018-03-27T02:19:09.171Z,40.64
2018-03-27T02:20:09.159Z,40.52
2018-03-27T02:21:09.144Z,40.68
2018-03-27T02:22:09.143Z,40.58
2018-03-27T02:23:09.156Z,40.51
2018-03-27T02:24:09.157Z,40.72
2018-03-27T02:25:09.164Z,40.55
2018-03-27T02:26:09.146Z,40.51
2018-03-27T02:27:09.144Z,40.68
2018-03-27T02:28:09.159Z,40.58
2018-03-27T02:29:09.173Z,40.51
2018-03-27T02:30:09.190Z,40.69
2018-03-27T02:31:09.164Z,40.55
2018-03-27T02:32:09.171Z,40.54
2018-03-27T02:33:09.146Z,40.65
2018-03-27T02:34:09.185Z,40.63
2018-03-27T02:35:09.189Z,40.55
2018-03-27T02:36:09.249Z,40.71
2018-03-27T02:37:09.195Z,40.63
2018-03-27T02:38:09.163Z,40.52
2018-03-27T02:39:09.205Z,40.71
2018-03-27T02:40:09.184Z,40.6
2018-03-27T02:41:09.198Z,40.51
2018-03-27T02:42:09.143Z,40.76
2018-03-27T02:43:09.138Z,40.63
2018-03-27T02:44:09.156Z,40.47
2018-03-27T02:45:09.183Z,40.69
2018-03-27T02:46:09.250Z,40.59
2018-03-27T02:47:09.166Z,40.52
2018-03-27T02:48:09.182Z,40.7
2018-03-27T02:49:09.162Z,40.56
2018-03-27T02:50:09.166Z,40.46
2018-03-27T02:51:09.146Z,40.7
2018-03-27T02:52:09.169Z,40.63
2018-03-27T02:53:09.172Z,40.55
2018-03-27T02:54:09.145Z,40.71
2018-03-27T02:55:09.148Z,40.6
2018-03-27T02:56:09.183Z,40.52
2018-03-27T02:57:09.149Z,40.72
2018-03-27T02:58:09.164Z,40.6
2018-03-27T02:59:09.156Z,40.51
2018-03-27T03:00:09.197Z,40.77
2018-03-27T03:01:09.148Z,40.63
2018-03-27T03:02:09.176Z,40.56
2018-03-27T03:03:09.167Z,40.74
2018-03-27T03:04:09.165Z,40.66
2018-03-27T03:05:09.169Z,40.51
2018-03-27T03:06:09.152Z,40.68
2018-03-27T03:07:09.137Z,40.58
2018-03-27T03:08:09.117Z,40.53
2018-03-27T03:09:09.171Z,40.71
2018-03-27T03:10:09.222Z,40.69
2018-03-27T03:11:09.143Z,40.58
2018-03-27T03:12:09.130Z,40.74
2018-03-27T03:13:09.113Z,40.64
2018-03-27T03:14:09.144Z,40.54
2018-03-27T03:15:09.121Z,40.76
2018-03-27T03:16:09.125Z,40.65
2018-03-27T03:17:09.122Z,40.58
2018-03-27T03:18:09.230Z,40.77
2018-03-27T03:19:09.660Z,40.66
2018-03-27T03:20:09.150Z,40.56
2018-03-27T03:21:09.149Z,40.75
2018-03-27T03:22:09.243Z,40.63
2018-03-27T03:23:09.111Z,40.55
2018-03-27T03:24:09.118Z,40.78
2018-03-27T03:25:09.397Z,40.64
2018-03-27T03:26:09.131Z,40.59
2018-03-27T03:27:09.144Z,40.73
2018-03-27T03:28:09.131Z,40.6
2018-03-27T03:29:09.145Z,40.53
2018-03-27T03:30:09.488Z,40.82
2018-03-27T03:31:09.147Z,40.64
2018-03-27T03:32:09.113Z,40.6
2018-03-27T03:33:09.116Z,40.72
2018-03-27T03:34:09.120Z,40.63
2018-03-27T03:35:09.162Z,40.57
2018-03-27T03:36:09.123Z,40.73
2018-03-27T03:37:09.120Z,40.65
2018-03-27T03:38:09.132Z,40.55
2018-03-27T03:39:09.128Z,40.75
2018-03-27T03:40:09.113Z,40.61
2018-03-27T03:41:09.159Z,40.56
2018-03-27T03:42:09.121Z,40.76
2018-03-27T03:43:09.107Z,40.63
2018-03-27T03:44:09.121Z,40.58
2018-03-27T03:45:09.150Z,40.74
2018-03-27T03:46:09.146Z,40.67
2018-03-27T03:47:09.116Z,40.55
2018-03-27T03:48:09.130Z,40.71
2018-03-27T03:49:09.112Z,40.63
2018-03-27T03:50:09.108Z,40.49
2018-03-27T03:51:09.120Z,40.75
2018-03-27T03:52:09.118Z,40.65
2018-03-27T03:53:09.679Z,40.61
2018-03-27T03:54:09.120Z,40.74
2018-03-27T03:55:09.122Z,40.71
2018-03-27T03:56:09.109Z,40.64
2018-03-27T03:57:09.108Z,40.78
2018-03-27T03:58:09.113Z,40.73
2018-03-27T03:59:09.161Z,40.58
2018-03-27T04:00:09.128Z,40.78
2018-03-27T04:01:09.113Z,40.69
2018-03-27T04:02:09.135Z,40.61
2018-03-27T04:03:09.122Z,40.8
2018-03-27T04:04:09.105Z,40.66
2018-03-27T04:05:09.140Z,40.58
2018-03-27T04:06:09.095Z,40.76
2018-03-27T04:07:09.110Z,40.61
2018-03-27T04:08:09.111Z,40.58
2018-03-27T04:09:09.164Z,40.76
2018-03-27T04:10:09.135Z,40.69
2018-03-27T04:11:09.182Z,40.7
2018-03-27T04:12:09.092Z,40.76
2018-03-27T04:13:09.108Z,40.66
2018-03-27T04:14:09.136Z,40.65
2018-03-27T04:15:09.169Z,40.75
2018-03-27T04:16:09.113Z,40.65
2018-03-27T04:17:09.107Z,40.61
2018-03-27T04:18:09.117Z,40.63
2018-03-27T04:19:09.100Z,40.59
2018-03-27T04:20:09.128Z,40.49
2018-03-27T04:21:09.126Z,40.5
2018-03-27T04:22:09.115Z,40.51
2018-03-27T04:23:09.128Z,40.43
2018-03-27T04:24:09.109Z,40.44
2018-03-27T04:25:09.146Z,40.4
2018-03-27T04:26:09.673Z,40.42
2018-03-27T04:27:09.126Z,40.46
2018-03-27T04:28:09.115Z,40.4
2018-03-27T04:29:09.113Z,40.44
2018-03-27T04:30:09.155Z,40.49
2018-03-27T04:31:09.153Z,40.4
2018-03-27T04:32:09.120Z,40.37
2018-03-27T04:33:09.117Z,40.47
2018-03-27T04:34:09.152Z,40.38
2018-03-27T04:35:09.115Z,40.37
2018-03-27T04:36:09.085Z,40.44
2018-03-27T04:37:09.077Z,40.42
2018-03-27T04:38:09.087Z,40.44
2018-03-27T04:39:09.083Z,40.46
2018-03-27T04:40:09.099Z,40.47
2018-03-27T04:41:09.093Z,40.35
2018-03-27T04:42:09.149Z,40.48
2018-03-27T04:43:09.041Z,40.38
2018-03-27T04:44:09.100Z,40.45
2018-03-27T04:45:09.106Z,40.5
2018-03-27T04:46:09.085Z,40.52
2018-03-27T04:47:09.104Z,40.48
2018-03-27T04:48:09.174Z,40.44
2018-03-27T04:49:09.087Z,40.45
2018-03-27T04:50:09.122Z,40.39
2018-03-27T04:51:09.096Z,40.48
2018-03-27T04:52:09.150Z,40.45
2018-03-27T04:53:09.099Z,40.48
2018-03-27T04:54:09.093Z,40.46
2018-03-27T04:55:09.138Z,40.47
2018-03-27T04:56:09.137Z,40.44
2018-03-27T04:57:09.081Z,40.46
2018-03-27T04:58:09.087Z,40.46
2018-03-27T04:59:09.098Z,40.45
2018-03-27T05:00:09.097Z,40.48
2018-03-27T05:01:09.093Z,40.45
2018-03-27T05:02:09.105Z,40.47
2018-03-27T05:03:09.091Z,40.51
2018-03-27T05:04:09.117Z,40.38
2018-03-27T05:05:09.101Z,40.42
2018-03-27T05:06:09.104Z,40.47
2018-03-27T05:07:09.146Z,40.46
2018-03-27T05:08:09.160Z,40.44
2018-03-27T05:09:09.141Z,40.47
2018-03-27T05:10:09.090Z,40.43
2018-03-27T05:11:09.168Z,40.39
2018-03-27T05:12:09.076Z,40.52
2018-03-27T05:13:09.307Z,40.44
2018-03-27T05:14:09.093Z,40.47
2018-03-27T05:15:09.131Z,40.36
2018-03-27T05:16:09.102Z,40.41
2018-03-27T05:17:09.139Z,40.46
2018-03-27T05:18:09.090Z,40.42
2018-03-27T05:19:09.210Z,40.41
2018-03-27T05:20:09.169Z,40.36
2018-03-27T05:21:09.123Z,40.39
2018-03-27T05:22:09.140Z,40.42
2018-03-27T05:23:09.115Z,40.39
2018-03-27T05:24:09.143Z,40.39
2018-03-27T05:25:09.084Z,40.4
2018-03-27T05:26:09.120Z,40.38
2018-03-27T05:27:09.095Z,40.4
2018-03-27T05:28:09.107Z,40.35
2018-03-27T05:29:09.108Z,40.37
2018-03-27T05:30:09.092Z,40.45
2018-03-27T05:31:09.138Z,40.41
2018-03-27T05:32:09.108Z,40.32
2018-03-27T05:33:09.098Z,40.42
2018-03-27T05:34:09.078Z,40.38
2018-03-27T05:35:09.097Z,40.36
2018-03-27T05:36:09.075Z,40.37
2018-03-27T05:37:09.090Z,40.21
2018-03-27T05:38:09.091Z,40.3
2018-03-27T05:39:09.109Z,40.45
2018-03-27T05:40:09.105Z,41.17
2018-03-27T05:41:09.084Z,40.65
2018-03-27T05:42:09.167Z,41.03
2018-03-27T05:43:09.100Z,40.63
2018-03-27T05:44:09.137Z,40.13
2018-03-27T05:45:09.132Z,40.77
2018-03-27T05:46:09.103Z,40.78
2018-03-27T05:47:09.134Z,40.84
2018-03-27T05:48:09.127Z,40.94
2018-03-27T05:49:09.085Z,40.89
2018-03-27T05:50:09.096Z,40.3
2018-03-27T05:51:09.146Z,40.58
2018-03-27T05:52:08.913Z,40.65
2018-03-27T05:53:09.077Z,40.63
2018-03-27T05:54:09.080Z,40.66
2018-03-27T05:55:09.107Z,40.61
2018-03-27T05:56:09.228Z,40.51
2018-03-27T05:57:09.079Z,40.48
2018-03-27T05:58:09.083Z,40.43
2018-03-27T05:59:09.074Z,40.42
2018-03-27T06:00:09.055Z,40.41
2018-03-27T06:01:09.085Z,40.4
2018-03-27T06:02:09.064Z,40.4
2018-03-27T06:03:09.086Z,40.37
2018-03-27T06:04:09.068Z,40.38
2018-03-27T06:05:09.715Z,40.31
2018-03-27T06:06:09.071Z,40.38
2018-03-27T06:07:09.048Z,40.28
2018-03-27T06:08:09.080Z,40.3
2018-03-27T06:09:09.086Z,40.3
2018-03-27T06:10:09.102Z,40.31
2018-03-27T06:11:09.076Z,40.26
2018-03-27T06:12:09.060Z,40.36
2018-03-27T06:13:09.116Z,40.28
2018-03-27T06:14:09.127Z,40.31
2018-03-27T06:15:09.076Z,40.29
2018-03-27T06:16:09.109Z,40.23
2018-03-27T06:17:09.080Z,40.3
2018-03-27T06:18:09.081Z,40.29
2018-03-27T06:19:09.049Z,40.29
2018-03-27T06:20:09.084Z,40.23
2018-03-27T06:21:09.097Z,40.27
2018-03-27T06:22:09.064Z,40.26
2018-03-27T06:23:09.066Z,40.18
2018-03-27T06:24:09.063Z,40.3
2018-03-27T06:25:09.072Z,40.26
2018-03-27T06:26:09.087Z,40.21
2018-03-27T06:27:09.077Z,40.24
2018-03-27T06:28:09.061Z,40.3
2018-03-27T06:29:09.102Z,40.2
2018-03-27T06:30:09.070Z,40.25
2018-03-27T06:31:09.097Z,40.26
2018-03-27T06:32:09.052Z,40.16
2018-03-27T06:33:09.082Z,40.27
2018-03-27T06:34:09.070Z,40.22
2018-03-27T06:35:09.134Z,40.17
2018-03-27T06:36:09.055Z,40.2
2018-03-27T06:37:09.067Z,40.2
2018-03-27T06:38:09.080Z,40.17
2018-03-27T06:39:09.048Z,40.21
2018-03-27T06:40:09.057Z,40.21
2018-03-27T06:41:09.138Z,40.13
2018-03-27T06:42:09.957Z,40.21
2018-03-27T06:43:09.089Z,40.23
2018-03-27T06:44:09.055Z,40.16
2018-03-27T06:45:10.102Z,40.25
2018-03-27T06:46:09.096Z,40.17
2018-03-27T06:47:09.074Z,40.1
2018-03-27T06:48:09.117Z,40.17
2018-03-27T06:49:09.055Z,40.19
2018-03-27T06:50:09.063Z,40.11
2018-03-27T06:51:09.039Z,40.18
2018-03-27T06:52:09.047Z,40.15
2018-03-27T06:53:09.060Z,40.07
2018-03-27T06:54:09.076Z,40.15
2018-03-27T06:55:09.053Z,40.14
2018-03-27T06:56:09.092Z,40.1
2018-03-27T06:57:09.084Z,40.14
2018-03-27T06:58:09.092Z,40.14
2018-03-27T06:59:09.388Z,40.08
2018-03-27T07:00:09.084Z,40.15
2018-03-27T07:01:09.045Z,40.1
2018-03-27T07:02:09.141Z,40.06
2018-03-27T07:03:09.170Z,40.13
2018-03-27T07:04:09.120Z,40.14
2018-03-27T07:05:09.164Z,40.08
2018-03-27T07:06:09.231Z,40.1
2018-03-27T07:07:09.174Z,40.1
2018-03-27T07:08:09.181Z,40.09
2018-03-27T07:09:09.169Z,40.13
2018-03-27T07:10:09.219Z,40.12
2018-03-27T07:11:09.162Z,40.07
2018-03-27T07:12:09.162Z,40.12
2018-03-27T07:13:09.247Z,40.11
2018-03-27T07:14:09.222Z,40.07
2018-03-27T07:15:09.245Z,40.12
2018-03-27T07:16:09.362Z,40.06
2018-03-27T07:17:09.145Z,40.02
2018-03-27T07:18:09.338Z,40.05
2018-03-27T07:19:09.231Z,40.04
2018-03-27T07:20:09.252Z,40.05
2018-03-27T07:21:09.127Z,40.02
2018-03-27T07:22:09.082Z,40.05
2018-03-27T07:23:09.132Z,40
2018-03-27T07:24:09.061Z,40.04
2018-03-27T07:25:09.073Z,39.96
2018-03-27T07:26:09.062Z,39.98
2018-03-27T07:27:09.054Z,40.01
2018-03-27T07:28:09.057Z,39.96
2018-03-27T07:29:09.095Z,39.96
2018-03-27T07:30:09.106Z,40
2018-03-27T07:31:09.043Z,40.04
2018-03-27T07:32:09.097Z,40.41
2018-03-27T07:33:09.104Z,40.42
2018-03-27T07:34:09.106Z,40.3
2018-03-27T07:35:09.044Z,40.31
2018-03-27T07:36:09.039Z,40.82
2018-03-27T07:37:09.035Z,40.76
2018-03-27T07:38:09.126Z,40.92
2018-03-27T07:39:09.119Z,41.07
2018-03-27T07:40:09.116Z,40.93
2018-03-27T07:41:09.090Z,40.97
2018-03-27T07:42:09.059Z,41.32
2018-03-27T07:43:09.019Z,41.06
2018-03-27T07:44:09.118Z,41.3
2018-03-27T07:45:09.069Z,41.14
2018-03-27T07:46:09.049Z,41.01
2018-03-27T07:47:09.084Z,40.79
2018-03-27T07:48:09.039Z,41.09
2018-03-27T07:49:09.069Z,41.05
2018-03-27T07:50:09.070Z,40.59
2018-03-27T07:51:09.038Z,41.18
2018-03-27T07:52:09.050Z,40.76
2018-03-27T07:53:09.096Z,40.56
2018-03-27T07:54:09.048Z,41
2018-03-27T07:55:09.064Z,40.47
2018-03-27T07:56:09.042Z,41.09
2018-03-27T07:57:09.047Z,40.88
2018-03-27T07:58:09.043Z,40.36
2018-03-27T07:59:09.069Z,40.36
2018-03-27T08:00:09.036Z,40.29
2018-03-27T08:01:09.054Z,40.33
2018-03-27T08:02:09.052Z,40.25
2018-03-27T08:03:09.047Z,40.35
2018-03-27T08:04:09.034Z,40.25
2018-03-27T08:05:08.973Z,40.27
2018-03-27T08:06:09.091Z,40.27
2018-03-27T08:07:09.025Z,40.31
2018-03-27T08:08:09.035Z,40.36
2018-03-27T08:09:09.039Z,40.32
2018-03-27T08:10:09.035Z,40.26
2018-03-27T08:11:09.897Z,40.25
2018-03-27T08:12:09.093Z,40.45
2018-03-27T08:13:09.047Z,40.31
2018-03-27T08:14:09.006Z,40.29
2018-03-27T08:15:09.056Z,40.33
2018-03-27T08:16:09.069Z,40.25
2018-03-27T08:17:08.997Z,40.31
2018-03-27T08:18:09.070Z,40.28
2018-03-27T08:19:09.015Z,40.23
2018-03-27T08:20:09.042Z,40.26
2018-03-27T08:21:09.077Z,40.28
2018-03-27T08:22:09.038Z,40.25
2018-03-27T08:23:09.060Z,40.33
2018-03-27T08:24:10.455Z,40.61
2018-03-27T08:25:09.022Z,40.41
2018-03-27T08:26:09.024Z,40.36
2018-03-27T08:27:09.045Z,40.58
2018-03-27T08:28:09.109Z,40.56
2018-03-27T08:29:09.050Z,40.59
2018-03-27T08:30:09.033Z,40.69
2018-03-27T08:31:09.098Z,40.44
2018-03-27T08:32:09.038Z,40.2
2018-03-27T08:33:09.073Z,40.27
2018-03-27T08:34:09.029Z,40.19
2018-03-27T08:35:09.031Z,40.16
2018-03-27T08:36:09.016Z,40.16
2018-03-27T08:37:09.018Z,40.11
2018-03-27T08:38:09.011Z,40.14
2018-03-27T08:39:09.366Z,40.15
2018-03-27T08:40:09.056Z,40.17
2018-03-27T08:41:09.013Z,40.14
2018-03-27T08:42:09.877Z,40.4
2018-03-27T08:43:09.018Z,40.43
2018-03-27T08:44:09.027Z,40.63
2018-03-27T08:45:09.026Z,40.72
2018-03-27T08:46:12.416Z,40.62
2018-03-27T08:47:09.117Z,40.54
2018-03-27T08:48:09.133Z,40.53
2018-03-27T08:49:09.023Z,40.44
2018-03-27T08:50:09.069Z,40.47
2018-03-27T08:51:09.019Z,40.46
2018-03-27T08:52:13.304Z,40.54
2018-03-27T08:53:09.014Z,41.05
2018-03-27T08:54:09.343Z,40.47
2018-03-27T08:55:09.057Z,40.97
2018-03-27T08:56:09.459Z,39.65
2018-03-27T08:57:09.022Z,39.63
2018-03-27T08:58:09.047Z,39.67
2018-03-27T08:59:09.054Z,39.63
2018-03-27T09:00:09.030Z,39.77
2018-03-27T09:01:09.013Z,39.81
2018-03-27T09:02:09.032Z,39.79
2018-03-27T09:03:09.022Z,39.82
2018-03-27T09:04:09.021Z,39.89
2018-03-27T09:05:09.016Z,39.9
2018-03-27T09:06:09.001Z,39.88
2018-03-27T09:07:09.074Z,39.87
2018-03-27T09:08:09.002Z,39.92
2018-03-27T09:09:09.171Z,39.93
2018-03-27T09:10:09.000Z,39.92
2018-03-27T09:11:09.022Z,39.87
2018-03-27T09:12:09.803Z,39.93
2018-03-27T09:13:09.307Z,39.87
2018-03-27T09:14:09.021Z,39.81
2018-03-27T09:15:09.314Z,39.87
2018-03-27T09:16:09.218Z,39.88
2018-03-27T09:17:09.089Z,39.83
2018-03-27T09:18:09.012Z,39.91
2018-03-27T09:19:09.064Z,39.92
2018-03-27T09:20:09.019Z,39.86
2018-03-27T09:21:09.129Z,39.9
2018-03-27T09:22:09.124Z,39.87
2018-03-27T09:23:08.999Z,39.86
2018-03-27T09:24:09.053Z,39.88
2018-03-27T09:25:09.038Z,39.9
2018-03-27T09:26:09.016Z,39.84
2018-03-27T09:27:09.011Z,40.05
2018-03-27T09:28:09.026Z,40.11
2018-03-27T09:29:09.014Z,40.09
2018-03-27T09:30:08.999Z,40.14
2018-03-27T09:31:09.088Z,40.13
2018-03-27T09:32:09.029Z,40.11
2018-03-27T09:33:09.038Z,40.29
2018-03-27T09:34:09.022Z,40.22
2018-03-27T09:35:09.006Z,40.16
2018-03-27T09:36:09.005Z,40.22
2018-03-27T09:37:09.029Z,40.21
2018-03-27T09:38:09.030Z,40.17
2018-03-27T09:39:09.210Z,40.24
2018-03-27T09:40:09.012Z,40.23
2018-03-27T09:41:09.018Z,40.16
2018-03-27T09:42:09.071Z,40.22
2018-03-27T09:43:09.077Z,40.23
2018-03-27T09:44:09.006Z,40.14
2018-03-27T09:45:08.997Z,40.2
2018-03-27T09:46:09.061Z,40.2
2018-03-27T09:47:09.004Z,40.09
2018-03-27T09:48:09.225Z,40.2
2018-03-27T09:49:09.086Z,40.14
2018-03-27T09:50:09.013Z,40.11
2018-03-27T09:51:09.042Z,40.16
2018-03-27T09:52:09.040Z,40.11
2018-03-27T09:53:08.992Z,40.12
2018-03-27T09:54:09.042Z,40.08
2018-03-27T09:55:09.019Z,40.08
2018-03-27T09:56:08.996Z,40.07
2018-03-27T09:57:09.006Z,40.06
2018-03-27T09:58:08.992Z,40.11
2018-03-27T09:59:09.025Z,40.08
2018-03-27T10:00:09.014Z,40.11
2018-03-27T10:01:08.998Z,40.07
2018-03-27T10:02:09.005Z,39.99
2018-03-27T10:03:09.019Z,40.01
2018-03-27T10:04:09.000Z,40.09
2018-03-27T10:05:09.008Z,40.23
2018-03-27T10:06:09.023Z,40.15
2018-03-27T10:07:09.031Z,40.13
2018-03-27T10:08:09.021Z,40.14
2018-03-27T10:09:09.037Z,40.32
2018-03-27T10:10:09.008Z,40.3
2018-03-27T10:11:09.060Z,40.27
2018-03-27T10:12:09.036Z,40.45
2018-03-27T10:13:09.007Z,40.42
2018-03-27T10:14:09.015Z,40.4
2018-03-27T10:15:08.991Z,40.44
2018-03-27T10:16:09.005Z,40.47
2018-03-27T10:17:09.013Z,40.27
2018-03-27T10:18:09.004Z,40.34
2018-03-27T10:19:09.036Z,40.31
2018-03-27T10:20:09.146Z,40.12
2018-03-27T10:21:09.012Z,40.2
2018-03-27T10:22:09.426Z,40.28
2018-03-27T10:23:09.052Z,40.2
2018-03-27T10:24:09.016Z,40.36
2018-03-27T10:25:08.977Z,40.38
2018-03-27T10:26:09.095Z,40.27
2018-03-27T10:27:09.029Z,40.46
2018-03-27T10:28:08.995Z,40.41
2018-03-27T10:29:09.021Z,40.4
2018-03-27T10:30:08.981Z,40.52
2018-03-27T10:31:09.003Z,40.52
2018-03-27T10:32:09.019Z,40.47
2018-03-27T10:33:09.082Z,40.6
2018-03-27T10:34:09.017Z,40.51
2018-03-27T10:35:08.988Z,40.4
2018-03-27T10:36:09.000Z,40.58
2018-03-27T10:37:09.016Z,40.58
2018-03-27T10:38:08.991Z,40.5
2018-03-27T10:39:09.003Z,40.67
2018-03-27T10:40:09.056Z,40.57
2018-03-27T10:41:08.982Z,40.52
2018-03-27T10:42:09.022Z,40.68
2018-03-27T10:43:08.997Z,40.6
2018-03-27T10:44:09.007Z,40.57
2018-03-27T10:45:08.998Z,40.78
2018-03-27T10:46:09.049Z,40.52
2018-03-27T10:47:09.015Z,40.74
2018-03-27T10:48:08.978Z,40.98
2018-03-27T10:49:09.051Z,41.12
2018-03-27T10:50:11.200Z,41.01
2018-03-27T10:51:09.022Z,40.92
2018-03-27T10:51:41.413Z,42.59
2018-03-27T10:52:41.400Z,40.46
2018-03-27T10:53:41.383Z,40.4
2018-03-27T10:54:41.410Z,40.02
2018-03-27T10:55:41.814Z,40.87
2018-03-27T10:56:41.395Z,40.5
2018-03-27T10:57:41.396Z,40.03
2018-03-27T10:58:41.385Z,39.93
2018-03-27T10:59:41.436Z,40.07
2018-03-27T11:00:41.380Z,39.99
2018-03-27T11:01:41.374Z,39.85
2018-03-27T11:02:41.425Z,40.04
2018-03-27T11:03:41.395Z,40.14
2018-03-27T11:04:41.485Z,40.07
2018-03-27T11:05:41.397Z,40.14
2018-03-27T11:06:41.428Z,40.22
2018-03-27T11:07:41.423Z,39.98
2018-03-27T11:08:41.453Z,40.03
2018-03-27T11:09:41.490Z,40.1
2018-03-27T11:10:41.414Z,39.91
2018-03-27T11:11:41.409Z,40.02
2018-03-27T11:12:41.348Z,40.05
2018-03-27T11:13:41.609Z,40.3
2018-03-27T11:14:41.437Z,40.01
2018-03-27T11:15:41.542Z,39.92
2018-03-27T11:16:41.478Z,39.91
2018-03-27T11:17:41.398Z,39.95
2018-03-27T11:18:41.380Z,39.95
2018-03-27T11:27:32.588Z,39.91
2018-03-27T11:28:13.368Z,39.92
2018-03-27T11:29:13.899Z,39.76
2018-03-27T11:30:13.355Z,39.95
2018-03-27T11:31:13.327Z,40.02
2018-03-27T11:32:13.366Z,39.94
2018-03-27T11:33:13.329Z,40.06
2018-03-27T11:34:13.328Z,39.98
2018-03-27T11:35:13.312Z,39.98
2018-03-27T11:36:13.366Z,40.07
2018-03-27T11:37:13.354Z,40.03
2018-03-27T11:38:13.314Z,40
2018-03-27T11:39:13.331Z,40.02
2018-03-27T11:40:13.305Z,39.98
2018-03-27T11:41:13.309Z,39.96
2018-03-27T11:42:13.313Z,39.98
2018-03-27T11:43:13.343Z,39.96
2018-03-27T11:44:13.301Z,39.95
2018-03-27T11:45:13.321Z,39.97
2018-03-27T11:46:13.325Z,39.9
2018-03-27T11:47:13.302Z,39.97
2018-03-27T11:48:13.285Z,40
2018-03-27T11:49:13.331Z,39.91
2018-03-27T11:50:13.310Z,39.86
2018-03-27T11:51:13.316Z,39.91
2018-03-27T11:52:13.350Z,39.85
2018-03-27T11:53:13.294Z,39.87
2018-03-27T11:54:13.289Z,39.87
2018-03-27T11:55:13.345Z,39.84
2018-03-27T11:56:13.330Z,39.8
2018-03-27T11:57:13.366Z,39.84
2018-03-27T11:58:13.352Z,39.83
2018-03-27T11:59:13.363Z,39.75
2018-03-27T12:00:13.318Z,39.77
2018-03-27T12:01:13.320Z,39.71
2018-03-27T12:02:13.311Z,39.71
2018-03-27T12:03:13.310Z,39.75
2018-03-27T12:04:13.296Z,39.77
2018-03-27T12:05:13.575Z,39.65
2018-03-27T12:06:13.299Z,39.67
2018-03-27T12:07:13.305Z,39.68
2018-03-27T12:08:13.304Z,39.58
2018-03-27T12:09:13.378Z,39.66
2018-03-27T12:10:13.413Z,39.61
2018-03-27T12:11:13.326Z,39.56
2018-03-27T12:12:13.278Z,39.63
2018-03-27T12:13:13.352Z,39.59
2018-03-27T12:14:13.315Z,39.57
2018-03-27T12:15:13.759Z,39.61
2018-03-27T12:16:13.372Z,39.6
2018-03-27T12:17:13.277Z,39.56
2018-03-27T12:18:13.332Z,39.68
2018-03-27T12:19:13.318Z,39.64
2018-03-27T12:20:13.324Z,39.47
2018-03-27T12:21:13.310Z,39.51
2018-03-27T12:22:13.327Z,39.48
2018-03-27T12:23:13.280Z,39.46
2018-03-27T12:24:13.295Z,39.48
2018-03-27T12:25:13.327Z,39.45
2018-03-27T12:26:13.318Z,39.45
2018-03-27T12:27:13.348Z,39.49
2018-03-27T12:28:13.348Z,39.46
2018-03-27T12:29:13.310Z,39.45
2018-03-27T12:30:13.316Z,39.53
2018-03-27T12:31:13.563Z,39.52
2018-03-27T12:32:13.323Z,39.46
2018-03-27T12:33:13.313Z,40.46
2018-03-27T12:34:13.339Z,39.46
2018-03-27T12:35:13.267Z,39.54
2018-03-27T12:36:13.302Z,39.57
2018-03-27T12:37:13.298Z,39.56
2018-03-27T12:38:13.315Z,39.59
2018-03-27T12:39:13.283Z,39.62
2018-03-27T12:40:13.312Z,39.64
2018-03-27T12:41:13.278Z,39.66
2018-03-27T12:42:13.758Z,39.67
2018-03-27T12:43:13.297Z,39.71
2018-03-27T12:44:13.299Z,39.62
2018-03-27T12:45:13.303Z,39.52
2018-03-27T12:46:13.325Z,39.58
2018-03-27T12:47:13.284Z,39.67
2018-03-27T12:48:13.276Z,39.68
2018-03-27T12:49:13.340Z,39.75
2018-03-27T12:50:13.291Z,39.78
2018-03-27T12:51:13.303Z,39.78
2018-03-27T12:52:13.294Z,39.79
2018-03-27T12:53:13.703Z,39.84
2018-03-27T12:54:13.300Z,39.76
2018-03-27T12:55:13.289Z,39.78
2018-03-27T12:56:13.346Z,39.83
2018-03-27T12:57:13.288Z,39.75
2018-03-27T12:58:13.316Z,39.76
2018-03-27T12:59:13.331Z,39.8
2018-03-27T13:00:13.309Z,39.76
2018-03-27T13:01:13.300Z,39.75
2018-03-27T13:02:13.289Z,39.77